createdAt,value
2022-09-26T00:01:56.148Z,10.50
2022-09-26T00:04:32.423Z,6.97
2022-09-26T00:07:02.139Z,7.35
2022-09-26T00:09:31.208Z,7.50
2022-09-26T00:12:01.303Z,6.80
2022-09-26T00:14:30.128Z,7.80
2022-09-26T00:16:57.088Z,10.57
2022-09-26T00:19:24.441Z,9.38
2022-09-26T00:21:51.459Z,8.02
2022-09-26T00:24:18.363Z,8.10
2022-09-26T00:26:48.567Z,8.45
2022-09-26T00:29:15.543Z,9.77
2022-09-26T00:31:46.069Z,9.32
2022-09-26T00:34:17.062Z,10.50
2022-09-26T00:36:44.323Z,9.57
2022-09-26T00:39:14.902Z,9.63
2022-09-26T00:41:42.277Z,11.57
2022-09-26T00:44:50.302Z,8.93
2022-09-26T00:47:42.272Z,9.57
2022-09-26T00:50:25.922Z,10.00
2022-09-26T00:52:59.611Z,9.40
2022-09-26T00:55:38.128Z,9.00
2022-09-26T00:58:14.661Z,8.88
2022-09-26T01:00:44.875Z,10.00
2022-09-26T01:03:14.691Z,9.03
2022-09-26T01:05:41.450Z,13.25
2022-09-26T01:08:11.785Z,9.60
2022-09-26T01:10:41.125Z,9.43
2022-09-26T01:13:10.492Z,10.27
2022-09-26T01:15:37.112Z,9.13
2022-09-26T01:18:04.071Z,11.00
2022-09-26T01:20:48.691Z,11.63
2022-09-26T01:23:59.329Z,12.55
2022-09-26T01:26:57.587Z,11.60
2022-09-26T01:29:53.820Z,11.93
2022-09-26T01:32:51.335Z,10.75
2022-09-26T01:35:48.369Z,13.38
2022-09-26T01:39:16.145Z,11.15
2022-09-26T01:41:51.004Z,10.50
2022-09-26T01:44:48.038Z,10.07
2022-09-26T01:47:49.759Z,15.32
2022-09-26T01:50:44.140Z,12.27
2022-09-26T01:53:49.230Z,9.38
2022-09-26T01:56:38.567Z,11.40
2022-09-26T01:59:33.015Z,12.30
2022-09-26T02:02:09.822Z,16.17
2022-09-26T02:04:46.756Z,11.25
2022-09-26T02:07:24.933Z,13.27
2022-09-26T02:10:03.951Z,10.75
2022-09-26T02:12:42.341Z,13.43
2022-09-26T02:15:20.207Z,10.68
2022-09-26T02:18:03.058Z,12.20
2022-09-26T02:20:41.735Z,10.20
2022-09-26T02:23:14.377Z,9.55
2022-09-26T02:25:41.285Z,10.93
2022-09-26T02:28:08.352Z,7.85
2022-09-26T02:30:37.091Z,12.50
2022-09-26T02:33:03.903Z,11.75
2022-09-26T02:35:51.268Z,14.43
2022-09-26T02:38:17.890Z,9.40
2022-09-26T02:40:55.387Z,9.75
2022-09-26T02:43:48.132Z,11.93
2022-09-26T02:46:43.716Z,11.18
2022-09-26T02:49:37.210Z,10.73
2022-09-26T02:52:19.735Z,10.48
2022-09-26T02:55:07.342Z,10.85
2022-09-26T02:58:06.560Z,11.27
2022-09-26T03:00:56.726Z,13.68
2022-09-26T03:03:35.473Z,11.48
2022-09-26T03:06:11.529Z,12.55
2022-09-26T03:08:56.147Z,9.15
2022-09-26T03:11:27.621Z,13.00
2022-09-26T03:13:57.229Z,9.93
2022-09-26T03:16:32.572Z,8.27
2022-09-26T03:19:10.606Z,12.18
2022-09-26T03:21:39.902Z,9.77
2022-09-26T03:24:10.350Z,11.77
2022-09-26T03:26:41.415Z,11.05
2022-09-26T03:31:41.372Z,13.45
2022-09-26T03:34:10.832Z,14.00
2022-09-26T03:36:39.737Z,9.48
2022-09-26T03:39:06.551Z,10.75
2022-09-26T03:41:34.514Z,11.10
2022-09-26T03:44:09.956Z,11.27
2022-09-26T03:46:39.971Z,12.98
2022-09-26T03:49:07.051Z,12.18
2022-09-26T03:51:33.892Z,9.68
2022-09-26T03:54:00.590Z,11.55
2022-09-26T03:56:27.793Z,11.45
2022-09-26T03:58:56.579Z,13.52
2022-09-26T04:01:28.699Z,13.10
2022-09-26T04:03:57.926Z,12.60
2022-09-26T04:06:27.416Z,13.02
2022-09-26T04:08:56.621Z,12.95
2022-09-26T04:11:24.944Z,11.45
2022-09-26T04:13:54.378Z,11.57
2022-09-26T04:16:23.935Z,14.10
2022-09-26T04:19:00.431Z,11.18
2022-09-26T04:21:27.595Z,14.30
2022-09-26T04:23:57.576Z,11.98
2022-09-26T04:26:28.327Z,15.25
2022-09-26T04:29:01.430Z,13.23
2022-09-26T04:31:31.460Z,12.70
2022-09-26T04:33:58.185Z,15.07
2022-09-26T04:36:33.613Z,14.82
2022-09-26T04:39:02.683Z,13.63
2022-09-26T04:41:32.107Z,13.90
2022-09-26T04:44:19.305Z,16.10
2022-09-26T04:46:46.041Z,13.57
2022-09-26T04:49:17.297Z,11.32
2022-09-26T04:51:48.690Z,11.90
2022-09-26T04:54:18.549Z,13.80
2022-09-26T04:56:47.369Z,12.48
2022-09-26T04:59:14.389Z,12.02
2022-09-26T05:01:41.426Z,11.30
2022-09-26T05:04:09.875Z,10.68
2022-09-26T05:06:36.623Z,12.35
2022-09-26T05:09:04.426Z,12.32
2022-09-26T05:11:32.448Z,11.93
2022-09-26T05:13:59.305Z,13.23
2022-09-26T05:16:28.229Z,14.63
2022-09-26T05:18:56.949Z,10.93
2022-09-26T05:21:27.329Z,11.50
2022-09-26T05:24:12.959Z,11.15
2022-09-26T05:26:46.109Z,14.30
2022-09-26T05:29:13.644Z,10.10
2022-09-26T05:31:40.750Z,10.95
2022-09-26T05:34:14.196Z,12.20
2022-09-26T05:36:45.134Z,11.05
2022-09-26T05:39:30.238Z,14.85
2022-09-26T05:42:01.379Z,10.85
2022-09-26T05:44:41.729Z,10.88
2022-09-26T05:47:09.036Z,11.13
2022-09-26T05:49:38.599Z,10.25
2022-09-26T05:52:05.662Z,11.00
2022-09-26T05:54:35.784Z,10.63
2022-09-26T05:57:07.169Z,10.50
2022-09-26T05:59:34.057Z,10.63
2022-09-26T06:02:06.321Z,13.88
2022-09-26T06:04:33.182Z,12.00
2022-09-26T06:07:02.399Z,12.80
2022-09-26T06:09:31.686Z,14.25
2022-09-26T06:12:00.547Z,12.15
2022-09-26T06:14:28.249Z,9.93
2022-09-26T06:16:55.028Z,14.65
2022-09-26T06:19:23.205Z,12.23
2022-09-26T06:21:50.234Z,10.63
2022-09-26T06:24:30.518Z,12.45
2022-09-26T06:27:17.123Z,13.77
2022-09-26T06:29:46.514Z,11.82
2022-09-26T06:32:23.778Z,11.98
2022-09-26T06:34:51.750Z,13.88
2022-09-26T06:37:22.019Z,12.50
2022-09-26T06:39:54.698Z,12.43
2022-09-26T06:42:29.928Z,11.35
2022-09-26T06:45:14.816Z,12.75
2022-09-26T06:47:43.757Z,13.93
2022-09-26T06:50:10.853Z,13.60
2022-09-26T06:52:37.803Z,13.65
2022-09-26T06:55:08.637Z,11.13
2022-09-26T06:57:41.911Z,11.25
2022-09-26T07:00:13.055Z,11.48
2022-09-26T07:05:17.281Z,10.93
2022-09-26T07:07:45.649Z,12.07
2022-09-26T07:10:23.163Z,13.98
2022-09-26T07:12:53.091Z,11.45
2022-09-26T07:15:20.863Z,10.25
2022-09-26T07:17:48.346Z,13.57
2022-09-26T07:20:19.127Z,11.60
2022-09-26T07:22:47.162Z,15.15
2022-09-26T07:25:14.207Z,15.68
2022-09-26T07:27:42.564Z,13.63
2022-09-26T07:30:16.961Z,15.18
2022-09-26T07:33:07.612Z,12.82
2022-09-26T07:35:37.670Z,13.75
2022-09-26T07:38:05.175Z,12.93
2022-09-26T07:40:39.379Z,13.60
2022-09-26T07:43:32.014Z,12.27
2022-09-26T07:46:14.300Z,14.50
2022-09-26T07:48:59.942Z,11.35
2022-09-26T07:51:31.454Z,12.90
2022-09-26T07:53:58.311Z,13.43
2022-09-26T07:56:27.291Z,15.18
2022-09-26T07:59:01.510Z,16.33
2022-09-26T08:01:28.930Z,11.00
2022-09-26T08:04:00.756Z,12.57
2022-09-26T08:06:38.237Z,15.07
2022-09-26T08:09:07.939Z,12.48
2022-09-26T08:11:35.301Z,14.13
2022-09-26T08:14:07.214Z,12.77
2022-09-26T08:16:34.191Z,12.40
2022-09-26T08:19:03.945Z,12.95
2022-09-26T08:21:30.650Z,12.45
2022-09-26T08:23:57.436Z,14.38
2022-09-26T08:26:24.179Z,12.23
2022-09-26T08:29:06.002Z,12.18
2022-09-26T08:31:33.437Z,13.30
2022-09-26T08:34:00.543Z,13.77
2022-09-26T08:36:28.475Z,13.88
2022-09-26T08:38:56.676Z,10.52
2022-09-26T08:42:00.977Z,11.98
2022-09-26T08:45:49.487Z,15.32
2022-09-26T08:48:47.247Z,13.30
2022-09-26T08:51:42.088Z,14.13
2022-09-26T08:54:41.284Z,13.15
2022-09-26T08:57:32.580Z,13.52
2022-09-26T09:00:01.074Z,15.40
2022-09-26T09:02:45.905Z,13.98
2022-09-26T09:05:25.624Z,13.20
2022-09-26T09:07:57.503Z,11.95
2022-09-26T09:11:07.599Z,13.68
2022-09-26T09:14:05.317Z,9.75
2022-09-26T09:16:51.397Z,12.10
2022-09-26T09:19:58.597Z,11.27
2022-09-26T09:22:41.995Z,11.23
2022-09-26T09:25:30.054Z,7.95
2022-09-26T09:28:41.069Z,8.18
2022-09-26T09:31:15.588Z,8.73
2022-09-26T09:33:59.679Z,7.45
2022-09-26T09:36:51.043Z,10.52
2022-09-26T09:39:36.523Z,8.57
2022-09-26T09:42:19.750Z,7.63
2022-09-26T09:45:05.483Z,10.63
2022-09-26T09:47:39.086Z,8.63
2022-09-26T09:50:15.369Z,8.15
2022-09-26T09:53:08.222Z,6.93
2022-09-26T09:55:59.299Z,6.40
2022-09-26T10:01:30.055Z,8.30
2022-09-26T10:04:08.508Z,6.97
2022-09-26T10:06:46.016Z,6.97
2022-09-26T10:09:36.459Z,6.93
2022-09-26T10:12:16.161Z,4.32
2022-09-26T10:15:02.721Z,6.07
2022-09-26T10:17:29.656Z,5.13
2022-09-26T10:19:57.296Z,7.32
2022-09-26T10:22:44.798Z,4.05
2022-09-26T10:25:23.028Z,4.13
2022-09-26T10:27:55.216Z,4.97
2022-09-26T10:30:31.896Z,5.45
2022-09-26T10:33:08.824Z,3.67
2022-09-26T10:35:49.876Z,4.93
2022-09-26T10:38:26.737Z,3.22
2022-09-26T10:41:01.374Z,3.55
2022-09-26T10:43:37.834Z,9.13
2022-09-26T10:46:12.865Z,5.20
2022-09-26T10:48:48.895Z,3.50
2022-09-26T10:51:28.680Z,3.72
2022-09-26T10:54:13.279Z,4.40
2022-09-26T10:56:49.671Z,4.45
2022-09-26T10:59:19.010Z,5.18
2022-09-26T11:01:51.324Z,4.28
2022-09-26T11:04:45.548Z,4.78
2022-09-26T11:07:25.825Z,4.82
2022-09-26T11:09:59.973Z,2.40
2022-09-26T11:12:32.327Z,3.45
2022-09-26T11:15:08.957Z,3.03
2022-09-26T11:17:47.935Z,3.08
2022-09-26T11:20:42.645Z,3.72
2022-09-26T11:23:34.542Z,3.38
2022-09-26T11:26:44.635Z,4.93
2022-09-26T11:29:51.051Z,3.47
2022-09-26T11:32:27.138Z,4.38
2022-09-26T11:34:54.587Z,4.38
2022-09-26T11:37:40.032Z,3.55
2022-09-26T11:40:30.599Z,5.18
2022-09-26T11:44:00.253Z,2.78
2022-09-26T11:47:46.546Z,3.25
2022-09-26T11:50:39.660Z,4.25
2022-09-26T11:53:28.429Z,3.80
2022-09-26T11:56:38.476Z,3.38
2022-09-26T11:59:17.336Z,3.72
2022-09-26T12:02:09.193Z,2.17
2022-09-26T12:04:55.045Z,3.40
2022-09-26T12:07:52.513Z,3.05
2022-09-26T12:10:39.545Z,4.57
2022-09-26T12:13:43.157Z,3.38
2022-09-26T12:16:49.498Z,3.38
2022-09-26T12:19:47.552Z,5.32
2022-09-26T12:22:49.292Z,4.38
2022-09-26T12:25:38.885Z,4.65
2022-09-26T12:28:45.695Z,2.88
2022-09-26T12:31:48.951Z,4.93
2022-09-26T12:34:57.718Z,3.50
2022-09-26T12:37:58.206Z,5.30
2022-09-26T12:40:39.642Z,5.87
2022-09-26T12:43:34.020Z,3.35
2022-09-26T12:46:44.837Z,4.05
2022-09-26T12:49:58.311Z,4.45
2022-09-26T12:52:43.235Z,2.97
2022-09-26T12:55:47.648Z,3.95
2022-09-26T12:58:42.323Z,3.90
2022-09-26T13:01:33.448Z,3.67
2022-09-26T13:07:25.030Z,4.38
2022-09-26T13:10:10.592Z,3.33
2022-09-26T13:12:55.604Z,3.85
2022-09-26T13:15:35.389Z,3.42
2022-09-26T13:18:16.731Z,4.13
2022-09-26T13:20:51.760Z,3.85
2022-09-26T13:23:31.504Z,2.80
2022-09-26T13:26:46.849Z,3.42
2022-09-26T13:29:25.523Z,4.13
2022-09-26T13:32:36.888Z,4.25
2022-09-26T13:35:20.489Z,3.80
2022-09-26T13:38:20.495Z,4.35
2022-09-26T13:40:55.731Z,3.60
2022-09-26T13:43:53.525Z,3.22
2022-09-26T13:47:01.767Z,3.00
2022-09-26T13:49:58.879Z,2.78
2022-09-26T13:52:42.702Z,6.43
2022-09-26T13:55:21.595Z,4.10
2022-09-26T13:58:03.045Z,4.25
2022-09-26T14:00:48.637Z,5.75
2022-09-26T14:03:18.432Z,6.60
2022-09-26T14:05:46.886Z,4.32
2022-09-26T14:08:51.605Z,4.88
2022-09-26T14:11:49.164Z,3.30
2022-09-26T14:14:18.993Z,3.60
2022-09-26T14:16:56.758Z,5.53
2022-09-26T14:19:41.276Z,3.70
2022-09-26T14:22:23.209Z,3.17
2022-09-26T14:24:56.579Z,3.05
2022-09-26T14:27:36.858Z,3.30
2022-09-26T14:30:30.461Z,3.38
2022-09-26T14:33:12.882Z,3.72
2022-09-26T14:35:39.670Z,1.80
2022-09-26T14:38:17.161Z,1.90
2022-09-26T14:40:59.412Z,1.75
2022-09-26T14:43:31.177Z,1.00
2022-09-26T14:46:19.001Z,1.63
2022-09-26T14:48:46.641Z,1.30
2022-09-26T14:51:16.437Z,2.25
2022-09-26T14:53:56.737Z,1.00
2022-09-26T14:56:46.562Z,0.90
2022-09-26T14:59:25.140Z,1.75
2022-09-26T15:02:10.561Z,1.38
2022-09-26T15:04:38.965Z,1.30
2022-09-26T15:07:24.734Z,1.00
2022-09-26T15:10:14.120Z,1.00
2022-09-26T15:12:59.057Z,1.08
2022-09-26T15:15:56.469Z,2.10
2022-09-26T15:18:40.047Z,1.65
2022-09-26T15:21:26.879Z,1.00
2022-09-26T15:23:57.309Z,1.60
2022-09-26T15:26:35.966Z,1.15
2022-09-26T15:29:07.103Z,1.20
2022-09-26T15:31:43.666Z,1.65
2022-09-26T15:34:13.194Z,1.90
2022-09-26T15:36:44.253Z,1.35
2022-09-26T15:39:32.663Z,1.48
2022-09-26T15:42:31.889Z,1.52
2022-09-26T15:45:05.044Z,1.08
2022-09-26T15:47:32.080Z,1.98
2022-09-26T15:50:27.253Z,1.63
2022-09-26T15:53:11.778Z,0.85
2022-09-26T15:56:03.449Z,0.90
2022-09-26T15:58:53.286Z,0.90
2022-09-26T16:01:29.471Z,3.03
2022-09-26T16:04:13.496Z,0.90
2022-09-26T16:06:52.642Z,1.15
2022-09-26T16:09:19.784Z,0.85
2022-09-26T16:11:53.232Z,2.60
2022-09-26T16:14:44.715Z,1.20
2022-09-26T16:17:32.264Z,3.15
2022-09-26T16:20:05.479Z,1.45
2022-09-26T16:22:54.702Z,1.35
2022-09-26T16:25:47.698Z,1.02
2022-09-26T16:28:15.564Z,0.90
2022-09-26T16:30:51.540Z,1.98
2022-09-26T16:33:33.961Z,1.40
2022-09-26T16:36:19.285Z,2.03
2022-09-26T16:38:56.445Z,1.70
2022-09-26T16:41:56.426Z,1.13
2022-09-26T16:44:26.267Z,1.75
2022-09-26T16:47:05.362Z,1.50
2022-09-26T16:49:48.696Z,1.35
2022-09-26T16:52:36.166Z,1.42
2022-09-26T16:55:06.127Z,2.00
2022-09-26T16:57:47.009Z,2.65
2022-09-26T17:00:41.775Z,1.95
2022-09-26T17:03:36.472Z,2.20
2022-09-26T17:06:03.354Z,2.78
2022-09-26T17:08:30.058Z,2.45
2022-09-26T17:11:02.695Z,7.07
2022-09-26T17:13:34.053Z,1.30
2022-09-26T17:16:02.427Z,2.42
2022-09-26T17:18:32.355Z,1.50
2022-09-26T17:20:59.579Z,2.95
2022-09-26T17:23:39.891Z,3.58
2022-09-26T17:26:10.786Z,2.10
2022-09-26T17:28:44.520Z,1.85
2022-09-26T17:31:19.464Z,2.20
2022-09-26T17:33:49.852Z,2.10
2022-09-26T17:36:28.848Z,3.60
2022-09-26T17:38:59.475Z,4.43
2022-09-26T17:41:27.810Z,3.92
2022-09-26T17:44:00.704Z,4.20
2022-09-26T17:46:28.645Z,3.30
2022-09-26T17:48:56.233Z,5.35
2022-09-26T17:51:23.872Z,3.17
2022-09-26T17:53:52.394Z,4.13
2022-09-26T17:56:20.433Z,4.95
2022-09-26T17:58:49.228Z,4.05
2022-09-26T18:01:26.524Z,4.05
2022-09-26T18:04:00.893Z,6.53
2022-09-26T18:06:32.708Z,3.80
2022-09-26T18:09:07.325Z,3.50
2022-09-26T18:11:34.869Z,3.00
2022-09-26T18:14:06.794Z,4.60
2022-09-26T18:16:33.574Z,7.15
2022-09-26T18:19:06.105Z,5.85
2022-09-26T18:21:34.220Z,4.93
2022-09-26T18:24:06.493Z,6.43
2022-09-26T18:26:47.065Z,3.97
2022-09-26T18:29:47.792Z,7.93
2022-09-26T18:32:31.602Z,4.05
2022-09-26T18:35:01.107Z,5.47
2022-09-26T18:37:28.602Z,4.75
2022-09-26T18:39:58.991Z,5.05
2022-09-26T18:42:28.412Z,5.45
2022-09-26T18:45:05.190Z,5.82
2022-09-26T18:47:42.751Z,7.57
2022-09-26T18:50:31.438Z,8.02
2022-09-26T18:52:58.526Z,7.13
2022-09-26T18:55:45.602Z,11.32
2022-09-26T18:58:24.288Z,4.63
2022-09-26T19:01:06.975Z,6.20
2022-09-26T19:03:37.867Z,9.10
2022-09-26T19:06:16.117Z,5.90
2022-09-26T19:08:49.646Z,5.40
2022-09-26T19:11:28.050Z,6.43
2022-09-26T19:13:57.911Z,5.28
2022-09-26T19:16:25.001Z,6.72
2022-09-26T19:18:52.289Z,7.57
2022-09-26T19:21:30.363Z,6.53
2022-09-26T19:24:04.522Z,6.00
2022-09-26T19:26:41.796Z,5.10
2022-09-26T19:29:18.445Z,5.20
2022-09-26T19:31:45.190Z,5.40
2022-09-26T19:34:15.964Z,5.25
2022-09-26T19:36:42.692Z,4.38
2022-09-26T19:39:15.961Z,5.10
2022-09-26T19:41:42.597Z,5.00
2022-09-26T19:44:09.503Z,4.50
2022-09-26T19:46:39.481Z,5.18
2022-09-26T19:49:07.260Z,4.88
2022-09-26T19:51:39.654Z,4.20
2022-09-26T19:54:06.776Z,3.25
2022-09-26T19:56:34.815Z,3.28
2022-09-26T19:59:01.850Z,4.57
2022-09-26T20:01:28.554Z,3.60
2022-09-26T20:03:55.259Z,3.28
2022-09-26T20:06:25.597Z,3.95
2022-09-26T20:09:01.225Z,4.35
2022-09-26T20:11:29.317Z,4.05
2022-09-26T20:14:14.871Z,4.20
2022-09-26T20:16:42.857Z,2.65
2022-09-26T20:19:21.910Z,3.83
2022-09-26T20:21:48.506Z,5.80
2022-09-26T20:24:18.891Z,4.20
2022-09-26T20:26:48.256Z,3.13
2022-09-26T20:29:16.444Z,3.42
2022-09-26T20:31:43.449Z,2.42
2022-09-26T20:34:11.545Z,2.30
2022-09-26T20:36:47.687Z,3.03
2022-09-26T20:39:25.651Z,3.53
2022-09-26T20:41:52.838Z,3.97
2022-09-26T20:44:33.615Z,2.10
2022-09-26T20:47:04.607Z,2.08
2022-09-26T20:52:08.853Z,1.55
2022-09-26T20:54:36.192Z,2.90
2022-09-26T20:57:02.875Z,4.03
2022-09-26T20:59:29.715Z,1.73
2022-09-26T21:01:58.945Z,1.60
2022-09-26T21:04:32.433Z,2.95
2022-09-26T21:06:59.155Z,1.90
2022-09-26T21:09:25.725Z,2.28
2022-09-26T21:11:52.300Z,2.50
2022-09-26T21:14:18.958Z,3.22
2022-09-26T21:16:51.885Z,3.30
2022-09-26T21:19:24.643Z,3.53
2022-09-26T21:21:52.088Z,4.07
2022-09-26T21:24:28.667Z,2.90
2022-09-26T21:26:55.434Z,3.00
2022-09-26T21:29:22.383Z,2.15
2022-09-26T21:31:52.624Z,4.05
2022-09-26T21:34:26.210Z,1.90
2022-09-26T21:36:57.004Z,2.08
2022-09-26T21:39:25.923Z,2.05
2022-09-26T21:41:57.778Z,1.95
2022-09-26T21:44:48.566Z,3.60
2022-09-26T21:47:15.524Z,2.28
2022-09-26T21:49:42.191Z,3.13
2022-09-26T21:52:20.232Z,1.80
2022-09-26T21:54:47.352Z,2.08
2022-09-26T21:57:23.651Z,1.60
2022-09-26T21:59:53.721Z,2.42
2022-09-26T22:02:20.611Z,2.20
2022-09-26T22:04:47.879Z,3.60
2022-09-26T22:07:15.642Z,1.98
2022-09-26T22:09:42.212Z,1.70
2022-09-26T22:12:08.807Z,1.83
2022-09-26T22:14:35.395Z,2.63
2022-09-26T22:17:02.067Z,2.22
2022-09-26T22:19:33.487Z,1.38
2022-09-26T22:22:01.606Z,1.98
2022-09-26T22:24:28.360Z,2.72
2022-09-26T22:26:55.051Z,1.92
2022-09-26T22:29:21.726Z,1.70
2022-09-26T22:31:48.344Z,2.47
2022-09-26T22:34:15.753Z,3.28
2022-09-26T22:36:42.462Z,3.40
2022-09-26T22:39:09.165Z,2.22
2022-09-26T22:41:35.835Z,2.35
2022-09-26T22:44:04.271Z,3.60
2022-09-26T22:46:34.358Z,2.03
2022-09-26T22:49:01.507Z,1.95
2022-09-26T22:51:28.968Z,2.20
2022-09-26T22:53:55.806Z,3.42
2022-09-26T22:56:22.659Z,4.45
2022-09-26T22:58:52.214Z,2.22
2022-09-26T23:01:25.897Z,2.83
2022-09-26T23:03:55.297Z,4.50
2022-09-26T23:06:23.625Z,2.08
2022-09-26T23:08:50.689Z,2.92
2022-09-26T23:11:18.237Z,4.13
2022-09-26T23:13:46.578Z,1.88
2022-09-26T23:16:17.198Z,2.60
2022-09-26T23:18:44.519Z,4.22
2022-09-26T23:21:19.968Z,2.88
2022-09-26T23:23:52.311Z,3.40
2022-09-26T23:26:31.842Z,3.28
2022-09-26T23:28:59.730Z,2.55
2022-09-26T23:31:28.188Z,2.20
2022-09-26T23:33:56.126Z,2.97
2022-09-26T23:36:23.180Z,2.10
2022-09-26T23:38:49.957Z,2.53
2022-09-26T23:41:17.327Z,2.10
2022-09-26T23:43:49.828Z,2.53
2022-09-26T23:46:16.587Z,2.42
2022-09-26T23:48:43.542Z,1.90
2022-09-26T23:51:10.403Z,1.38
2022-09-26T23:53:37.509Z,2.70
2022-09-26T23:56:10.798Z,1.65
2022-09-26T23:58:38.320Z,2.80
